sensor_id;sensor_type;location;lat;lon;timestamp;pressure;altitude;pressure_sealevel;temperature;humidity
14232;BME280;7200;52.194;9.900;2022-10-31T00:00:49;100641.03;;;16.46;100.00
14232;BME280;7200;52.194;9.900;2022-10-31T00:03:15;100632.56;;;16.39;100.00
14232;BME280;7200;52.194;9.900;2022-10-31T00:05:47;100629.56;;;16.29;100.00
14232;BME280;7200;52.194;9.900;2022-10-31T00:08:13;100629.91;;;16.23;100.00
14232;BME280;7200;52.194;9.900;2022-10-31T00:10:42;100622.56;;;16.12;100.00
14232;BME280;7200;52.194;9.900;2022-10-31T00:13:08;100616.97;;;16.01;100.00
14232;BME280;7200;52.194;9.900;2022-10-31T00:15:35;100635.59;;;16.01;100.00
14232;BME280;7200;52.194;9.900;2022-10-31T00:18:01;100624.50;;;15.93;100.00
14232;BME280;7200;52.194;9.900;2022-10-31T00:20:27;100643.75;;;15.98;100.00
14232;BME280;7200;52.194;9.900;2022-10-31T00:22:52;100647.09;;;16.02;100.00
14232;BME280;7200;52.194;9.900;2022-10-31T00:25:17;100660.22;;;16.05;100.00
14232;BME280;7200;52.194;9.900;2022-10-31T00:27:43;100651.47;;;16.03;100.00
14232;BME280;7200;52.194;9.900;2022-10-31T00:30:08;100655.16;;;16.00;100.00
14232;BME280;7200;52.194;9.900;2022-10-31T00:32:34;100656.09;;;15.99;100.00
14232;BME280;7200;52.194;9.900;2022-10-31T00:34:59;100665.88;;;15.99;100.00
14232;BME280;7200;52.194;9.900;2022-10-31T00:37:24;100660.06;;;15.92;100.00
14232;BME280;7200;52.194;9.900;2022-10-31T00:39:49;100655.31;;;15.81;100.00
14232;BME280;7200;52.194;9.900;2022-10-31T00:42:15;100669.53;;;15.80;100.00
14232;BME280;7200;52.194;9.900;2022-10-31T00:44:40;100680.28;;;15.79;100.00
14232;BME280;7200;52.194;9.900;2022-10-31T00:47:06;100690.75;;;15.82;100.00
14232;BME280;7200;52.194;9.900;2022-10-31T00:49:31;100687.41;;;15.78;100.00
14232;BME280;7200;52.194;9.900;2022-10-31T00:51:56;100694.44;;;15.79;100.00
14232;BME280;7200;52.194;9.900;2022-10-31T00:54:21;100705.88;;;15.81;100.00
14232;BME280;7200;52.194;9.900;2022-10-31T00:56:47;100703.28;;;15.80;100.00
14232;BME280;7200;52.194;9.900;2022-10-31T00:59:12;100718.81;;;15.87;100.00
14232;BME280;7200;52.194;9.900;2022-10-31T01:01:37;100729.94;;;15.95;100.00
14232;BME280;7200;52.194;9.900;2022-10-31T01:04:03;100730.94;;;15.93;100.00
14232;BME280;7200;52.194;9.900;2022-10-31T01:06:28;100740.25;;;16.02;100.00
14232;BME280;7200;52.194;9.900;2022-10-31T01:08:53;100754.06;;;16.08;100.00
14232;BME280;7200;52.194;9.900;2022-10-31T01:11:21;100752.34;;;16.07;100.00
14232;BME280;7200;52.194;9.900;2022-10-31T01:13:47;100752.44;;;16.06;100.00
14232;BME280;7200;52.194;9.900;2022-10-31T01:16:18;100753.28;;;16.06;100.00
14232;BME280;7200;52.194;9.900;2022-10-31T01:18:44;100771.84;;;16.08;100.00
14232;BME280;7200;52.194;9.900;2022-10-31T01:21:22;100776.31;;;16.07;100.00
14232;BME280;7200;52.194;9.900;2022-10-31T01:23:47;100773.03;;;16.02;100.00
14232;BME280;7200;52.194;9.900;2022-10-31T01:26:18;100780.25;;;16.00;100.00
14232;BME280;7200;52.194;9.900;2022-10-31T01:28:50;100789.16;;;15.99;100.00
14232;BME280;7200;52.194;9.900;2022-10-31T01:31:17;100789.34;;;15.96;100.00
14232;BME280;7200;52.194;9.900;2022-10-31T01:33:43;100793.19;;;15.90;100.00
14232;BME280;7200;52.194;9.900;2022-10-31T01:38:37;100786.53;;;15.82;100.00
14232;BME280;7200;52.194;9.900;2022-10-31T01:41:03;100785.94;;;15.76;100.00
14232;BME280;7200;52.194;9.900;2022-10-31T01:43:50;100802.91;;;15.74;100.00
14232;BME280;7200;52.194;9.900;2022-10-31T01:46:19;100805.69;;;15.71;100.00
14232;BME280;7200;52.194;9.900;2022-10-31T01:48:46;100812.72;;;15.72;100.00
14232;BME280;7200;52.194;9.900;2022-10-31T01:51:12;100815.28;;;15.75;100.00
14232;BME280;7200;52.194;9.900;2022-10-31T01:53:40;100825.84;;;15.76;100.00
14232;BME280;7200;52.194;9.900;2022-10-31T01:56:07;100833.63;;;15.80;100.00
14232;BME280;7200;52.194;9.900;2022-10-31T01:58:33;100838.19;;;15.77;100.00
14232;BME280;7200;52.194;9.900;2022-10-31T02:01:00;100836.75;;;15.70;100.00
14232;BME280;7200;52.194;9.900;2022-10-31T02:03:27;100843.94;;;15.68;100.00
14232;BME280;7200;52.194;9.900;2022-10-31T02:05:54;100842.31;;;15.66;100.00
14232;BME280;7200;52.194;9.900;2022-10-31T02:08:26;100850.44;;;15.63;100.00
14232;BME280;7200;52.194;9.900;2022-10-31T02:10:52;100865.47;;;15.64;100.00
14232;BME280;7200;52.194;9.900;2022-10-31T02:13:18;100855.22;;;15.56;100.00
14232;BME280;7200;52.194;9.900;2022-10-31T02:15:46;100851.22;;;15.47;100.00
14232;BME280;7200;52.194;9.900;2022-10-31T02:18:13;100869.13;;;15.44;100.00
14232;BME280;7200;52.194;9.900;2022-10-31T02:21:02;100880.59;;;15.44;100.00
14232;BME280;7200;52.194;9.900;2022-10-31T02:23:59;100887.59;;;15.47;100.00
14232;BME280;7200;52.194;9.900;2022-10-31T02:29:55;100894.00;;;15.43;100.00
14232;BME280;7200;52.194;9.900;2022-10-31T02:32:46;100903.69;;;15.44;100.00
14232;BME280;7200;52.194;9.900;2022-10-31T02:38:06;100896.09;;;15.36;100.00
14232;BME280;7200;52.194;9.900;2022-10-31T02:40:42;100904.00;;;15.37;100.00
14232;BME280;7200;52.194;9.900;2022-10-31T02:43:20;100899.97;;;15.29;100.00
14232;BME280;7200;52.194;9.900;2022-10-31T02:46:05;100900.81;;;15.29;100.00
14232;BME280;7200;52.194;9.900;2022-10-31T02:48:33;100903.59;;;15.28;100.00
14232;BME280;7200;52.194;9.900;2022-10-31T02:51:03;100910.78;;;15.26;100.00
14232;BME280;7200;52.194;9.900;2022-10-31T02:53:33;100919.53;;;15.28;100.00
14232;BME280;7200;52.194;9.900;2022-10-31T02:56:02;100916.22;;;15.23;100.00
14232;BME280;7200;52.194;9.900;2022-10-31T02:58:34;100918.09;;;15.21;100.00
14232;BME280;7200;52.194;9.900;2022-10-31T03:01:26;100926.00;;;15.22;100.00
14232;BME280;7200;52.194;9.900;2022-10-31T03:06:49;100911.47;;;15.10;100.00
14232;BME280;7200;52.194;9.900;2022-10-31T03:09:30;100921.50;;;15.05;100.00
14232;BME280;7200;52.194;9.900;2022-10-31T03:12:06;100926.34;;;14.95;100.00
14232;BME280;7200;52.194;9.900;2022-10-31T03:14:41;100929.13;;;14.94;100.00
14232;BME280;7200;52.194;9.900;2022-10-31T03:17:14;100930.81;;;14.95;100.00
14232;BME280;7200;52.194;9.900;2022-10-31T03:19:45;100930.16;;;14.90;100.00
14232;BME280;7200;52.194;9.900;2022-10-31T03:22:17;100943.53;;;14.88;100.00
14232;BME280;7200;52.194;9.900;2022-10-31T03:24:45;100946.25;;;14.87;100.00
14232;BME280;7200;52.194;9.900;2022-10-31T03:27:14;100951.56;;;14.87;100.00
14232;BME280;7200;52.194;9.900;2022-10-31T03:29:40;100953.44;;;14.85;100.00
14232;BME280;7200;52.194;9.900;2022-10-31T03:32:13;100958.03;;;14.81;100.00
14232;BME280;7200;52.194;9.900;2022-10-31T03:34:41;100952.13;;;14.74;100.00
14232;BME280;7200;52.194;9.900;2022-10-31T03:37:09;100968.28;;;14.70;100.00
14232;BME280;7200;52.194;9.900;2022-10-31T03:39:37;100969.47;;;14.63;100.00
14232;BME280;7200;52.194;9.900;2022-10-31T03:42:09;100980.16;;;14.61;100.00
14232;BME280;7200;52.194;9.900;2022-10-31T03:44:38;100974.06;;;14.59;100.00
14232;BME280;7200;52.194;9.900;2022-10-31T03:47:06;100977.66;;;14.58;100.00
14232;BME280;7200;52.194;9.900;2022-10-31T03:49:32;100985.53;;;14.59;100.00
14232;BME280;7200;52.194;9.900;2022-10-31T03:52:03;100987.44;;;14.56;100.00
14232;BME280;7200;52.194;9.900;2022-10-31T03:54:46;100991.44;;;14.46;100.00
14232;BME280;7200;52.194;9.900;2022-10-31T03:57:27;101000.59;;;14.38;100.00
14232;BME280;7200;52.194;9.900;2022-10-31T04:00:05;101005.22;;;14.33;100.00
14232;BME280;7200;52.194;9.900;2022-10-31T04:02:33;101007.75;;;14.36;100.00
14232;BME280;7200;52.194;9.900;2022-10-31T04:05:00;101018.38;;;14.36;100.00
14232;BME280;7200;52.194;9.900;2022-10-31T04:07:30;101014.41;;;14.26;100.00
14232;BME280;7200;52.194;9.900;2022-10-31T04:09:58;101024.22;;;14.24;100.00
14232;BME280;7200;52.194;9.900;2022-10-31T04:12:26;101033.84;;;14.27;100.00
14232;BME280;7200;52.194;9.900;2022-10-31T04:14:52;101033.63;;;14.31;100.00
14232;BME280;7200;52.194;9.900;2022-10-31T04:17:21;101034.56;;;14.30;100.00
14232;BME280;7200;52.194;9.900;2022-10-31T04:19:48;101035.38;;;14.32;100.00
14232;BME280;7200;52.194;9.900;2022-10-31T04:22:13;101038.81;;;14.34;100.00
14232;BME280;7200;52.194;9.900;2022-10-31T04:24:39;101037.03;;;14.35;100.00
14232;BME280;7200;52.194;9.900;2022-10-31T04:27:05;101035.63;;;14.26;100.00
14232;BME280;7200;52.194;9.900;2022-10-31T04:29:31;101050.63;;;14.27;100.00
14232;BME280;7200;52.194;9.900;2022-10-31T04:31:56;101052.34;;;14.28;100.00
14232;BME280;7200;52.194;9.900;2022-10-31T04:34:21;101047.91;;;14.29;100.00
14232;BME280;7200;52.194;9.900;2022-10-31T04:36:46;101055.13;;;14.25;100.00
14232;BME280;7200;52.194;9.900;2022-10-31T04:39:12;101056.06;;;14.24;100.00
14232;BME280;7200;52.194;9.900;2022-10-31T04:41:37;101059.84;;;14.18;100.00
14232;BME280;7200;52.194;9.900;2022-10-31T04:44:02;101057.25;;;14.17;100.00
14232;BME280;7200;52.194;9.900;2022-10-31T04:46:28;101057.31;;;14.15;100.00
14232;BME280;7200;52.194;9.900;2022-10-31T04:48:53;101047.75;;;14.11;100.00
14232;BME280;7200;52.194;9.900;2022-10-31T04:51:18;101058.38;;;14.11;100.00
14232;BME280;7200;52.194;9.900;2022-10-31T04:53:43;101061.88;;;14.12;100.00
14232;BME280;7200;52.194;9.900;2022-10-31T04:56:09;101063.34;;;14.19;100.00
14232;BME280;7200;52.194;9.900;2022-10-31T04:58:34;101059.84;;;14.18;100.00
14232;BME280;7200;52.194;9.900;2022-10-31T05:00:59;101051.63;;;14.02;100.00
14232;BME280;7200;52.194;9.900;2022-10-31T05:03:25;101049.28;;;13.95;100.00
14232;BME280;7200;52.194;9.900;2022-10-31T05:05:50;101054.84;;;13.89;100.00
14232;BME280;7200;52.194;9.900;2022-10-31T05:08:15;101046.22;;;13.83;100.00
14232;BME280;7200;52.194;9.900;2022-10-31T05:10:41;101055.22;;;13.79;100.00
14232;BME280;7200;52.194;9.900;2022-10-31T05:13:06;101056.22;;;13.77;100.00
14232;BME280;7200;52.194;9.900;2022-10-31T05:15:32;101056.75;;;13.85;100.00
14232;BME280;7200;52.194;9.900;2022-10-31T05:17:57;101050.66;;;13.83;100.00
14232;BME280;7200;52.194;9.900;2022-10-31T05:20:26;101055.91;;;13.85;100.00
14232;BME280;7200;52.194;9.900;2022-10-31T05:22:54;101054.84;;;13.89;100.00
14232;BME280;7200;52.194;9.900;2022-10-31T05:25:22;101048.06;;;13.81;100.00
14232;BME280;7200;52.194;9.900;2022-10-31T05:27:48;101037.13;;;13.67;100.00
14232;BME280;7200;52.194;9.900;2022-10-31T05:30:20;101014.63;;;13.55;100.00
14232;BME280;7200;52.194;9.900;2022-10-31T05:32:48;101000.53;;;13.31;100.00
14232;BME280;7200;52.194;9.900;2022-10-31T05:35:16;101017.19;;;13.35;100.00
14232;BME280;7200;52.194;9.900;2022-10-31T05:37:42;101014.44;;;13.38;100.00
14232;BME280;7200;52.194;9.900;2022-10-31T05:40:09;101022.63;;;13.32;100.00
14232;BME280;7200;52.194;9.900;2022-10-31T05:42:35;101012.09;;;13.29;100.00
14232;BME280;7200;52.194;9.900;2022-10-31T05:45:00;101020.06;;;13.29;100.00
14232;BME280;7200;52.194;9.900;2022-10-31T05:47:26;101027.34;;;13.22;100.00
14232;BME280;7200;52.194;9.900;2022-10-31T05:49:51;101023.16;;;13.16;100.00
14232;BME280;7200;52.194;9.900;2022-10-31T05:52:17;101026.16;;;13.07;100.00
14232;BME280;7200;52.194;9.900;2022-10-31T05:54:42;101020.97;;;13.04;100.00
14232;BME280;7200;52.194;9.900;2022-10-31T05:57:08;101031.53;;;13.05;100.00
14232;BME280;7200;52.194;9.900;2022-10-31T05:59:33;101014.19;;;12.97;100.00
14232;BME280;7200;52.194;9.900;2022-10-31T06:01:59;101023.72;;;13.01;100.00
14232;BME280;7200;52.194;9.900;2022-10-31T06:04:24;101020.38;;;12.96;100.00
14232;BME280;7200;52.194;9.900;2022-10-31T06:06:49;101030.06;;;12.97;100.00
14232;BME280;7200;52.194;9.900;2022-10-31T06:09:14;101024.03;;;12.93;100.00
14232;BME280;7200;52.194;9.900;2022-10-31T06:11:40;101024.06;;;12.92;100.00
14232;BME280;7200;52.194;9.900;2022-10-31T06:14:05;101018.31;;;12.80;100.00
14232;BME280;7200;52.194;9.900;2022-10-31T06:16:31;101034.94;;;12.84;100.00
14232;BME280;7200;52.194;9.900;2022-10-31T06:18:56;101057.53;;;12.94;100.00
14232;BME280;7200;52.194;9.900;2022-10-31T06:21:22;101048.38;;;12.79;100.00
14232;BME280;7200;52.194;9.900;2022-10-31T06:23:47;101054.47;;;12.81;100.00
14232;BME280;7200;52.194;9.900;2022-10-31T06:26:12;101045.81;;;12.76;100.00
14232;BME280;7200;52.194;9.900;2022-10-31T06:28:38;101048.56;;;12.73;100.00
14232;BME280;7200;52.194;9.900;2022-10-31T06:31:03;101053.94;;;12.72;100.00
14232;BME280;7200;52.194;9.900;2022-10-31T06:33:28;101048.78;;;12.67;100.00
14232;BME280;7200;52.194;9.900;2022-10-31T06:35:54;101067.22;;;12.70;100.00
14232;BME280;7200;52.194;9.900;2022-10-31T06:38:19;101086.19;;;12.83;100.00
14232;BME280;7200;52.194;9.900;2022-10-31T06:40:44;101075.38;;;12.89;100.00
14232;BME280;7200;52.194;9.900;2022-10-31T06:43:10;101072.00;;;12.84;100.00
14232;BME280;7200;52.194;9.900;2022-10-31T06:45:36;101051.34;;;12.70;100.00
14232;BME280;7200;52.194;9.900;2022-10-31T06:48:02;101077.69;;;12.73;100.00
14232;BME280;7200;52.194;9.900;2022-10-31T06:50:27;101075.69;;;12.80;100.00
14232;BME280;7200;52.194;9.900;2022-10-31T06:52:54;101081.00;;;12.80;100.00
14232;BME280;7200;52.194;9.900;2022-10-31T06:55:20;101100.03;;;12.91;100.00
14232;BME280;7200;52.194;9.900;2022-10-31T06:57:55;101106.56;;;13.06;100.00
14232;BME280;7200;52.194;9.900;2022-10-31T07:00:21;101104.63;;;13.11;100.00
14232;BME280;7200;52.194;9.900;2022-10-31T07:03:00;101111.47;;;13.17;100.00
14232;BME280;7200;52.194;9.900;2022-10-31T07:05:26;101116.44;;;13.26;100.00
14232;BME280;7200;52.194;9.900;2022-10-31T07:07:53;101128.81;;;13.25;100.00
14232;BME280;7200;52.194;9.900;2022-10-31T07:10:19;101139.97;;;13.35;100.00
14232;BME280;7200;52.194;9.900;2022-10-31T07:12:44;101142.28;;;13.44;100.00
14232;BME280;7200;52.194;9.900;2022-10-31T07:15:09;101140.44;;;13.47;100.00
14232;BME280;7200;52.194;9.900;2022-10-31T07:17:35;101140.44;;;13.47;100.00
14232;BME280;7200;52.194;9.900;2022-10-31T07:20:00;101140.66;;;13.40;100.00
14232;BME280;7200;52.194;9.900;2022-10-31T07:22:32;101156.13;;;13.53;100.00
14232;BME280;7200;52.194;9.900;2022-10-31T07:24:57;101147.94;;;13.59;100.00
14232;BME280;7200;52.194;9.900;2022-10-31T07:27:22;101147.84;;;13.62;100.00
14232;BME280;7200;52.194;9.900;2022-10-31T07:29:48;101141.25;;;13.49;100.00
14232;BME280;7200;52.194;9.900;2022-10-31T07:32:13;101143.91;;;13.49;100.00
14232;BME280;7200;52.194;9.900;2022-10-31T07:34:38;101143.03;;;13.48;100.00
14232;BME280;7200;52.194;9.900;2022-10-31T07:37:03;101148.84;;;13.58;100.00
14232;BME280;7200;52.194;9.900;2022-10-31T07:39:29;101150.34;;;13.65;100.00
14232;BME280;7200;52.194;9.900;2022-10-31T07:41:54;101153.66;;;13.72;100.00
14232;BME280;7200;52.194;9.900;2022-10-31T07:44:22;101144.88;;;13.70;100.00
14232;BME280;7200;52.194;9.900;2022-10-31T07:46:48;101144.00;;;13.69;100.00
14232;BME280;7200;52.194;9.900;2022-10-31T07:49:13;101146.38;;;13.77;100.00
14232;BME280;7200;52.194;9.900;2022-10-31T07:51:38;101144.53;;;13.79;100.00
14232;BME280;7200;52.194;9.900;2022-10-31T07:54:03;101143.75;;;13.77;100.00
14232;BME280;7200;52.194;9.900;2022-10-31T07:56:29;101147.19;;;13.79;100.00
14232;BME280;7200;52.194;9.900;2022-10-31T07:58:54;101141.34;;;13.69;100.00
14232;BME280;7200;52.194;9.900;2022-10-31T08:01:19;101162.13;;;13.81;100.00
14232;BME280;7200;52.194;9.900;2022-10-31T08:03:45;101153.66;;;13.72;100.00
14232;BME280;7200;52.194;9.900;2022-10-31T08:06:10;101163.25;;;13.74;100.00
14232;BME280;7200;52.194;9.900;2022-10-31T08:08:35;101166.09;;;13.70;100.00
14232;BME280;7200;52.194;9.900;2022-10-31T08:11:00;101173.06;;;13.72;100.00
14232;BME280;7200;52.194;9.900;2022-10-31T08:13:26;101175.72;;;13.72;100.00
14232;BME280;7200;52.194;9.900;2022-10-31T08:15:51;101176.72;;;13.70;100.00
14232;BME280;7200;52.194;9.900;2022-10-31T08:18:17;101165.47;;;13.63;100.00
14232;BME280;7200;52.194;9.900;2022-10-31T08:20:43;101149.94;;;13.52;100.00
14232;BME280;7200;52.194;9.900;2022-10-31T08:23:10;101159.59;;;13.55;100.00
14232;BME280;7200;52.194;9.900;2022-10-31T08:25:36;101138.16;;;13.37;100.00
14232;BME280;7200;52.194;9.900;2022-10-31T08:28:01;101155.47;;;13.46;100.00
14232;BME280;7200;52.194;9.900;2022-10-31T08:30:32;101157.63;;;13.60;100.00
14232;BME280;7200;52.194;9.900;2022-10-31T08:33:10;101161.47;;;13.75;100.00
14232;BME280;7200;52.194;9.900;2022-10-31T08:35:36;101160.25;;;13.83;100.00
14232;BME280;7200;52.194;9.900;2022-10-31T08:38:01;101153.97;;;13.86;100.00
14232;BME280;7200;52.194;9.900;2022-10-31T08:40:28;101150.50;;;13.84;100.00
14232;BME280;7200;52.194;9.900;2022-10-31T08:43:04;101159.72;;;13.97;100.00
14232;BME280;7200;52.194;9.900;2022-10-31T08:45:31;101159.25;;;14.10;100.00
14232;BME280;7200;52.194;9.900;2022-10-31T08:47:59;101151.00;;;14.17;100.00
14232;BME280;7200;52.194;9.900;2022-10-31T08:50:25;101151.41;;;14.29;100.00
14232;BME280;7200;52.194;9.900;2022-10-31T08:52:51;101147.72;;;14.33;100.00
14232;BME280;7200;52.194;9.900;2022-10-31T08:55:16;101142.88;;;14.43;100.00
14232;BME280;7200;52.194;9.900;2022-10-31T08:57:41;101132.25;;;14.43;100.00
14232;BME280;7200;52.194;9.900;2022-10-31T09:00:07;101135.59;;;14.48;100.00
14232;BME280;7200;52.194;9.900;2022-10-31T09:02:33;101137.63;;;14.63;100.00
14232;BME280;7200;52.194;9.900;2022-10-31T09:04:58;101142.84;;;14.66;100.00
14232;BME280;7200;52.194;9.900;2022-10-31T09:07:23;101147.19;;;14.67;100.00
14232;BME280;7200;52.194;9.900;2022-10-31T09:09:48;101152.13;;;14.76;100.00
14232;BME280;7200;52.194;9.900;2022-10-31T09:12:14;101149.63;;;14.94;100.00
14232;BME280;7200;52.194;9.900;2022-10-31T09:14:39;101144.31;;;14.94;100.00
14232;BME280;7200;52.194;9.900;2022-10-31T09:17:04;101153.00;;;15.18;100.00
14232;BME280;7200;52.194;9.900;2022-10-31T09:19:30;101155.00;;;15.33;100.00
14232;BME280;7200;52.194;9.900;2022-10-31T09:21:55;101161.94;;;15.56;100.00
14232;BME280;7200;52.194;9.900;2022-10-31T09:24:21;101136.34;;;15.54;100.00
14232;BME280;7200;52.194;9.900;2022-10-31T09:26:46;101137.69;;;15.63;100.00
14232;BME280;7200;52.194;9.900;2022-10-31T09:29:12;101117.06;;;15.49;100.00
14232;BME280;7200;52.194;9.900;2022-10-31T09:31:37;101111.69;;;15.50;100.00
14232;BME280;7200;52.194;9.900;2022-10-31T09:34:03;101141.47;;;15.77;100.00
14232;BME280;7200;52.194;9.900;2022-10-31T09:36:28;101121.44;;;15.69;100.00
14232;BME280;7200;52.194;9.900;2022-10-31T09:38:53;101130.41;;;15.87;100.00
14232;BME280;7200;52.194;9.900;2022-10-31T09:44:28;101125.78;;;16.09;100.00
14232;BME280;7200;52.194;9.900;2022-10-31T09:47:13;101118.00;;;16.24;100.00
14232;BME280;7200;52.194;9.900;2022-10-31T09:52:30;101091.72;;;16.16;100.00
14232;BME280;7200;52.194;9.900;2022-10-31T09:55:03;101113.31;;;16.46;100.00
14232;BME280;7200;52.194;9.900;2022-10-31T09:57:34;101119.03;;;16.73;100.00
14232;BME280;7200;52.194;9.900;2022-10-31T10:00:01;101116.88;;;16.99;100.00
14232;BME280;7200;52.194;9.900;2022-10-31T10:02:38;101102.97;;;17.10;100.00
14232;BME280;7200;52.194;9.900;2022-10-31T10:05:13;101081.63;;;17.10;100.00
14232;BME280;7200;52.194;9.900;2022-10-31T10:07:59;101064.41;;;17.00;100.00
14232;BME280;7200;52.194;9.900;2022-10-31T10:10:36;101069.41;;;17.06;100.00
14232;BME280;7200;52.194;9.900;2022-10-31T10:18:38;101041.31;;;17.16;100.00
14232;BME280;7200;52.194;9.900;2022-10-31T10:23:53;101053.06;;;17.12;100.00
14232;BME280;7200;52.194;9.900;2022-10-31T10:26:22;101057.84;;;17.23;100.00
14232;BME280;7200;52.194;9.900;2022-10-31T10:28:54;101080.56;;;17.46;100.00
14232;BME280;7200;52.194;9.900;2022-10-31T10:31:23;101072.94;;;17.56;100.00
14232;BME280;7200;52.194;9.900;2022-10-31T10:34:23;101071.13;;;17.72;100.00
14232;BME280;7200;52.194;9.900;2022-10-31T10:37:03;101062.13;;;18.06;100.00
14232;BME280;7200;52.194;9.900;2022-10-31T10:39:39;101037.03;;;18.09;100.00
14232;BME280;7200;52.194;9.900;2022-10-31T10:42:13;101014.59;;;17.97;100.00
14232;BME280;7200;52.194;9.900;2022-10-31T10:44:57;101024.38;;;18.13;100.00
14232;BME280;7200;52.194;9.900;2022-10-31T10:47:50;100994.00;;;17.99;100.00
14232;BME280;7200;52.194;9.900;2022-10-31T10:50:25;100997.22;;;18.04;100.00
14232;BME280;7200;52.194;9.900;2022-10-31T10:53:13;100996.81;;;18.12;100.00
14232;BME280;7200;52.194;9.900;2022-10-31T10:56:21;100999.41;;;18.28;100.00
14232;BME280;7200;52.194;9.900;2022-10-31T10:58:54;101000.69;;;18.37;100.00
14232;BME280;7200;52.194;9.900;2022-10-31T11:01:22;100994.69;;;18.62;100.00
14232;BME280;7200;52.194;9.900;2022-10-31T11:03:47;100979.91;;;18.56;100.00
14232;BME280;7200;52.194;9.900;2022-10-31T11:06:18;100946.75;;;18.30;100.00
14232;BME280;7200;52.194;9.900;2022-10-31T11:08:47;100954.25;;;18.54;100.00
14232;BME280;7200;52.194;9.900;2022-10-31T11:13:49;100936.66;;;18.49;100.00
14232;BME280;7200;52.194;9.900;2022-10-31T11:18:52;100923.13;;;18.67;100.00
14232;BME280;7200;52.194;9.900;2022-10-31T11:21:27;100898.78;;;18.43;100.00
14232;BME280;7200;52.194;9.900;2022-10-31T11:26:37;100920.06;;;18.59;100.00
14232;BME280;7200;52.194;9.900;2022-10-31T11:29:04;100900.69;;;18.55;100.00
14232;BME280;7200;52.194;9.900;2022-10-31T11:31:31;100886.84;;;18.34;100.00
14232;BME280;7200;52.194;9.900;2022-10-31T11:34:00;100894.78;;;18.36;100.00
14232;BME280;7200;52.194;9.900;2022-10-31T11:36:29;100890.59;;;18.46;100.00
14232;BME280;7200;52.194;9.900;2022-10-31T11:38:55;100886.28;;;18.43;100.00
14232;BME280;7200;52.194;9.900;2022-10-31T11:41:29;100877.13;;;18.47;100.00
14232;BME280;7200;52.194;9.900;2022-10-31T11:44:00;100898.69;;;18.73;100.00
14232;BME280;7200;52.194;9.900;2022-10-31T11:46:37;100886.38;;;18.85;100.00
14232;BME280;7200;52.194;9.900;2022-10-31T11:49:05;100886.19;;;18.88;100.00
14232;BME280;7200;52.194;9.900;2022-10-31T11:51:36;100875.94;;;18.95;100.00
14232;BME280;7200;52.194;9.900;2022-10-31T11:54:03;100861.56;;;18.68;100.00
14232;BME280;7200;52.194;9.900;2022-10-31T11:56:40;100875.69;;;18.85;100.00
14232;BME280;7200;52.194;9.900;2022-10-31T11:59:17;100863.09;;;18.73;100.00
14232;BME280;7200;52.194;9.900;2022-10-31T12:01:47;100846.94;;;18.74;100.00
14232;BME280;7200;52.194;9.900;2022-10-31T12:04:13;100852.75;;;18.66;100.00
14232;BME280;7200;52.194;9.900;2022-10-31T12:06:41;100860.50;;;18.71;100.00
14232;BME280;7200;52.194;9.900;2022-10-31T12:09:21;100868.97;;;18.78;100.00
14232;BME280;7200;52.194;9.900;2022-10-31T12:17:43;100825.84;;;18.70;100.00
14232;BME280;7200;52.194;9.900;2022-10-31T12:20:50;100827.84;;;18.66;100.00
14232;BME280;7200;52.194;9.900;2022-10-31T12:29:07;100834.00;;;18.54;100.00
14232;BME280;7200;52.194;9.900;2022-10-31T12:31:49;100843.81;;;18.67;100.00
14232;BME280;7200;52.194;9.900;2022-10-31T12:37:15;100813.47;;;18.68;100.00
14232;BME280;7200;52.194;9.900;2022-10-31T12:45:25;100794.75;;;18.68;100.00
14232;BME280;7200;52.194;9.900;2022-10-31T12:48:18;100789.59;;;18.65;100.00
14232;BME280;7200;52.194;9.900;2022-10-31T12:59:10;100790.66;;;18.48;100.00
14232;BME280;7200;52.194;9.900;2022-10-31T13:01:47;100802.59;;;18.57;100.00
14232;BME280;7200;52.194;9.900;2022-10-31T13:04:24;100793.50;;;18.60;100.00
14232;BME280;7200;52.194;9.900;2022-10-31T13:07:02;100781.41;;;18.54;100.00
14232;BME280;7200;52.194;9.900;2022-10-31T13:09:36;100782.06;;;18.58;100.00
14232;BME280;7200;52.194;9.900;2022-10-31T13:12:07;100781.16;;;18.72;100.00
14232;BME280;7200;52.194;9.900;2022-10-31T13:14:37;100763.38;;;18.58;100.00
14232;BME280;7200;52.194;9.900;2022-10-31T13:17:03;100772.88;;;18.76;100.00
14232;BME280;7200;52.194;9.900;2022-10-31T13:19:40;100771.13;;;18.90;100.00
14232;BME280;7200;52.194;9.900;2022-10-31T13:22:10;100756.13;;;18.87;100.00
14232;BME280;7200;52.194;9.900;2022-10-31T13:24:57;100746.06;;;18.63;100.00
14232;BME280;7200;52.194;9.900;2022-10-31T13:27:27;100748.81;;;18.76;100.00
14232;BME280;7200;52.194;9.900;2022-10-31T13:32:41;100730.38;;;18.72;100.00
14232;BME280;7200;52.194;9.900;2022-10-31T13:35:18;100734.63;;;18.61;100.00
14232;BME280;7200;52.194;9.900;2022-10-31T13:37:51;100726.19;;;18.67;100.00
14232;BME280;7200;52.194;9.900;2022-10-31T13:40:34;100712.03;;;18.53;100.00
14232;BME280;7200;52.194;9.900;2022-10-31T13:45:52;100728.25;;;18.49;100.00
14232;BME280;7200;52.194;9.900;2022-10-31T13:48:33;100707.97;;;18.33;100.00
14232;BME280;7200;52.194;9.900;2022-10-31T13:51:08;100693.59;;;18.21;100.00
14232;BME280;7200;52.194;9.900;2022-10-31T13:54:20;100696.00;;;18.11;100.00
14232;BME280;7200;52.194;9.900;2022-10-31T13:56:30;100717.56;;;18.08;100.00
14232;BME280;7200;52.194;9.900;2022-10-31T13:59:15;100705.75;;;17.98;100.00
14232;BME280;7200;52.194;9.900;2022-10-31T14:02:15;100720.63;;;17.87;100.00
14232;BME280;7200;52.194;9.900;2022-10-31T14:04:50;100712.16;;;17.95;100.00
14232;BME280;7200;52.194;9.900;2022-10-31T14:07:19;100700.06;;;17.89;100.00
14232;BME280;7200;52.194;9.900;2022-10-31T14:13:29;100689.78;;;17.82;100.00